Terminal Aerodrome Forecast
Issued by NWS

Home | Current Version | Previous Version | Text Only | Print | Product List | Glossary On
Versions: 1 2 3 4 5 6 7 8 9 10 11 12 13 14 15
000
FTUS45 KVEF 310500
TAFEED
TAF
KEED 310539Z 3106/0106 26008KT P6SM SCT250
     FM311200 VRB05KT P6SM SCT250
     FM311900 21009KT P6SM FEW120 SCT250=

USA.gov is the U.S. government's official web portal to all federal, state and local government web resources and services.